sensor_id;sensor_type;location;lat;lon;timestamp;pressure;altitude;pressure_sealevel;temperature;humidity
37368;BME280;23240;43.210;27.910;2022-09-09T00:09:28;101314.41;;;19.82;100.00
37368;BME280;23240;43.210;27.910;2022-09-09T00:12:14;101305.94;;;19.77;100.00
37368;BME280;23240;43.210;27.910;2022-09-09T00:15:00;101307.47;;;19.80;100.00
37368;BME280;23240;43.210;27.910;2022-09-09T00:17:40;101303.22;;;19.77;100.00
37368;BME280;23240;43.210;27.910;2022-09-09T00:23:05;101291.69;;;19.75;100.00
37368;BME280;23240;43.210;27.910;2022-09-09T00:25:57;101286.22;;;19.75;100.00
37368;BME280;23240;43.210;27.910;2022-09-09T00:28:26;101290.66;;;19.76;100.00
37368;BME280;23240;43.210;27.910;2022-09-09T00:30:53;101291.00;;;19.73;100.00
37368;BME280;23240;43.210;27.910;2022-09-09T00:33:21;101298.47;;;19.71;100.00
37368;BME280;23240;43.210;27.910;2022-09-09T00:38:19;101302.22;;;19.70;100.00
37368;BME280;23240;43.210;27.910;2022-09-09T00:41:11;101295.09;;;19.69;100.00
37368;BME280;23240;43.210;27.910;2022-09-09T00:43:40;101293.41;;;19.68;100.00
37368;BME280;23240;43.210;27.910;2022-09-09T01:02:28;101276.22;;;19.59;100.00
37368;BME280;23240;43.210;27.910;2022-09-09T01:05:30;101280.09;;;19.57;100.00
37368;BME280;23240;43.210;27.910;2022-09-09T01:07:52;101276.22;;;19.51;100.00
37368;BME280;23240;43.210;27.910;2022-09-09T01:13:27;101271.47;;;19.45;100.00
37368;BME280;23240;43.210;27.910;2022-09-09T01:15:57;101271.47;;;19.45;100.00
37368;BME280;23240;43.210;27.910;2022-09-09T01:18:27;101274.50;;;19.42;100.00
37368;BME280;23240;43.210;27.910;2022-09-09T01:21:13;101271.97;;;19.40;100.00
37368;BME280;23240;43.210;27.910;2022-09-09T01:28:52;101282.81;;;19.32;100.00
37368;BME280;23240;43.210;27.910;2022-09-09T01:31:22;101286.56;;;19.31;100.00
37368;BME280;23240;43.210;27.910;2022-09-09T01:33:48;101280.94;;;19.33;100.00
37368;BME280;23240;43.210;27.910;2022-09-09T01:36:40;101283.50;;;19.26;100.00
37368;BME280;23240;43.210;27.910;2022-09-09T01:39:03;101285.38;;;19.25;100.00
37368;BME280;23240;43.210;27.910;2022-09-09T01:41:29;101279.75;;;19.27;100.00
37368;BME280;23240;43.210;27.910;2022-09-09T01:43:55;101280.97;;;19.24;100.00
37368;BME280;23240;43.210;27.910;2022-09-09T01:46:22;101277.22;;;19.25;100.00
37368;BME280;23240;43.210;27.910;2022-09-09T01:48:49;101272.97;;;19.23;100.00
37368;BME280;23240;43.210;27.910;2022-09-09T01:51:16;101281.13;;;19.23;100.00
37368;BME280;23240;43.210;27.910;2022-09-09T01:53:42;101280.44;;;19.21;100.00
37368;BME280;23240;43.210;27.910;2022-09-09T01:59:22;101273.50;;;19.10;100.00
37368;BME280;23240;43.210;27.910;2022-09-09T02:10:21;101291.28;;;19.05;100.00
37368;BME280;23240;43.210;27.910;2022-09-09T02:12:55;101287.38;;;18.99;100.00
37368;BME280;23240;43.210;27.910;2022-09-09T02:15:40;101283.44;;;18.93;100.00
37368;BME280;23240;43.210;27.910;2022-09-09T02:18:10;101286.50;;;18.90;100.00
37368;BME280;23240;43.210;27.910;2022-09-09T02:20:39;101282.94;;;18.90;100.00
37368;BME280;23240;43.210;27.910;2022-09-09T02:23:07;101284.13;;;18.87;100.00
37368;BME280;23240;43.210;27.910;2022-09-09T02:25:35;101285.28;;;18.85;100.00
37368;BME280;23240;43.210;27.910;2022-09-09T02:28:04;101289.88;;;18.84;100.00
37368;BME280;23240;43.210;27.910;2022-09-09T02:30:32;101287.84;;;18.78;100.00
37368;BME280;23240;43.210;27.910;2022-09-09T02:33:01;101283.44;;;18.77;100.00
37368;BME280;23240;43.210;27.910;2022-09-09T02:35:30;101279.69;;;18.78;100.00
37368;BME280;23240;43.210;27.910;2022-09-09T02:38:02;101282.72;;;18.75;100.00
37368;BME280;23240;43.210;27.910;2022-09-09T02:40:28;101279.34;;;18.73;100.00
37368;BME280;23240;43.210;27.910;2022-09-09T02:42:54;101275.91;;;18.71;100.00
37368;BME280;23240;43.210;27.910;2022-09-09T02:45:24;101284.06;;;18.71;100.00
37368;BME280;23240;43.210;27.910;2022-09-09T02:48:00;101276.63;;;18.73;100.00
37368;BME280;23240;43.210;27.910;2022-09-09T02:50:34;101274.75;;;18.73;100.00
37368;BME280;23240;43.210;27.910;2022-09-09T02:53:18;101277.16;;;18.77;100.00
37368;BME280;23240;43.210;27.910;2022-09-09T02:55:53;101280.72;;;18.77;100.00
37368;BME280;23240;43.210;27.910;2022-09-09T02:58:20;101283.44;;;18.77;100.00
37368;BME280;23240;43.210;27.910;2022-09-09T03:00:47;101271.56;;;18.78;100.00
37368;BME280;23240;43.210;27.910;2022-09-09T03:03:14;101281.38;;;18.79;100.00
37368;BME280;23240;43.210;27.910;2022-09-09T03:05:42;101275.97;;;18.79;100.00
37368;BME280;23240;43.210;27.910;2022-09-09T03:08:07;101278.84;;;18.78;100.00
37368;BME280;23240;43.210;27.910;2022-09-09T03:10:33;101270.88;;;18.76;100.00
37368;BME280;23240;43.210;27.910;2022-09-09T03:12:58;101280.38;;;18.72;100.00
37368;BME280;23240;43.210;27.910;2022-09-09T03:15:24;101279.34;;;18.73;100.00
37368;BME280;23240;43.210;27.910;2022-09-09T03:17:56;101276.81;;;18.71;100.00
37368;BME280;23240;43.210;27.910;2022-09-09T03:20:23;101286.09;;;18.69;100.00
37368;BME280;23240;43.210;27.910;2022-09-09T03:22:48;101293.22;;;18.70;100.00
37368;BME280;23240;43.210;27.910;2022-09-09T03:25:14;101287.81;;;18.70;100.00
37368;BME280;23240;43.210;27.910;2022-09-09T03:27:40;101296.13;;;18.68;100.00
37368;BME280;23240;43.210;27.910;2022-09-09T03:30:06;101289.97;;;18.66;100.00
37368;BME280;23240;43.210;27.910;2022-09-09T03:32:32;101283.84;;;18.64;100.00
37368;BME280;23240;43.210;27.910;2022-09-09T03:34:58;101285.41;;;18.67;100.00
37368;BME280;23240;43.210;27.910;2022-09-09T03:37:23;101283.06;;;18.72;100.00
37368;BME280;23240;43.210;27.910;2022-09-09T03:39:49;101281.34;;;18.71;100.00
37368;BME280;23240;43.210;27.910;2022-09-09T03:42:15;101286.09;;;18.69;100.00
37368;BME280;23240;43.210;27.910;2022-09-09T03:44:44;101285.63;;;18.73;100.00
37368;BME280;23240;43.210;27.910;2022-09-09T03:47:12;101279.16;;;18.74;100.00
37368;BME280;23240;43.210;27.910;2022-09-09T03:49:38;101281.75;;;18.76;100.00
37368;BME280;23240;43.210;27.910;2022-09-09T03:52:03;101287.16;;;18.76;100.00
37368;BME280;23240;43.210;27.910;2022-09-09T03:54:29;101282.91;;;18.73;100.00
37368;BME280;23240;43.210;27.910;2022-09-09T03:56:54;101283.56;;;18.75;100.00
37368;BME280;23240;43.210;27.910;2022-09-09T03:59:20;101285.28;;;18.77;100.00
37368;BME280;23240;43.210;27.910;2022-09-09T04:01:46;101284.28;;;18.78;100.00
37368;BME280;23240;43.210;27.910;2022-09-09T04:04:12;101281.06;;;18.82;100.00
37368;BME280;23240;43.210;27.910;2022-09-09T04:06:38;101280.88;;;18.84;100.00
37368;BME280;23240;43.210;27.910;2022-09-09T04:09:03;101279.03;;;18.84;100.00
37368;BME280;23240;43.210;27.910;2022-09-09T04:11:29;101283.09;;;18.88;100.00
37368;BME280;23240;43.210;27.910;2022-09-09T04:13:54;101293.97;;;18.88;100.00
37368;BME280;23240;43.210;27.910;2022-09-09T04:16:20;101287.19;;;18.92;100.00
37368;BME280;23240;43.210;27.910;2022-09-09T04:18:46;101287.72;;;18.96;100.00
37368;BME280;23240;43.210;27.910;2022-09-09T04:21:11;101288.22;;;18.99;100.00
37368;BME280;23240;43.210;27.910;2022-09-09T04:23:37;101284.66;;;19.07;100.00
37368;BME280;23240;43.210;27.910;2022-09-09T04:26:03;101285.19;;;19.11;100.00
37368;BME280;23240;43.210;27.910;2022-09-09T04:28:31;101281.78;;;19.17;100.00
37368;BME280;23240;43.210;27.910;2022-09-09T04:31:08;101286.72;;;19.21;100.00
37368;BME280;23240;43.210;27.910;2022-09-09T04:33:35;101290.97;;;19.24;100.00
37368;BME280;23240;43.210;27.910;2022-09-09T04:36:00;101295.75;;;19.30;100.00
37368;BME280;23240;43.210;27.910;2022-09-09T04:38:26;101304.03;;;19.37;100.00
37368;BME280;23240;43.210;27.910;2022-09-09T04:40:52;101295.38;;;19.41;100.00
37368;BME280;23240;43.210;27.910;2022-09-09T04:43:19;101312.88;;;19.47;100.00
37368;BME280;23240;43.210;27.910;2022-09-09T04:45:50;101297.63;;;19.54;100.00
37368;BME280;23240;43.210;27.910;2022-09-09T04:48:17;101305.25;;;19.59;100.00
37368;BME280;23240;43.210;27.910;2022-09-09T04:50:43;101291.34;;;19.70;100.00
37368;BME280;23240;43.210;27.910;2022-09-09T04:53:09;101288.25;;;19.81;100.00
37368;BME280;23240;43.210;27.910;2022-09-09T04:55:35;101278.03;;;19.91;100.00
37368;BME280;23240;43.210;27.910;2022-09-09T04:58:05;101284.81;;;20.03;100.00
37368;BME280;23240;43.210;27.910;2022-09-09T05:00:33;101285.13;;;20.17;100.00
37368;BME280;23240;43.210;27.910;2022-09-09T05:03:03;101293.41;;;20.32;100.00
37368;BME280;23240;43.210;27.910;2022-09-09T05:05:29;101295.56;;;20.44;100.00
37368;BME280;23240;43.210;27.910;2022-09-09T05:08:06;101299.63;;;20.57;100.00
37368;BME280;23240;43.210;27.910;2022-09-09T05:10:33;101297.84;;;20.72;100.00
37368;BME280;23240;43.210;27.910;2022-09-09T05:12:59;101298.97;;;20.86;100.00
37368;BME280;23240;43.210;27.910;2022-09-09T05:15:24;101292.97;;;20.98;100.00
37368;BME280;23240;43.210;27.910;2022-09-09T05:17:50;101295.56;;;21.15;100.00
37368;BME280;23240;43.210;27.910;2022-09-09T05:20:17;101298.88;;;21.25;100.00
37368;BME280;23240;43.210;27.910;2022-09-09T05:22:43;101299.63;;;21.42;100.00
37368;BME280;23240;43.210;27.910;2022-09-09T05:25:09;101297.28;;;21.62;100.00
37368;BME280;23240;43.210;27.910;2022-09-09T05:27:34;101290.63;;;21.79;100.00
37368;BME280;23240;43.210;27.910;2022-09-09T05:30:00;101287.53;;;21.97;100.00
37368;BME280;23240;43.210;27.910;2022-09-09T05:32:26;101283.72;;;22.21;100.00
37368;BME280;23240;43.210;27.910;2022-09-09T05:34:51;101277.69;;;22.40;100.00
37368;BME280;23240;43.210;27.910;2022-09-09T05:37:17;101277.94;;;22.60;100.00
37368;BME280;23240;43.210;27.910;2022-09-09T05:39:43;101280.28;;;22.78;100.00
37368;BME280;23240;43.210;27.910;2022-09-09T05:42:09;101273.06;;;23.06;100.00
37368;BME280;23240;43.210;27.910;2022-09-09T05:44:35;101270.94;;;23.30;99.84
37368;BME280;23240;43.210;27.910;2022-09-09T05:47:00;101271.84;;;23.58;97.45
37368;BME280;23240;43.210;27.910;2022-09-09T05:49:26;101269.88;;;23.74;96.78
37368;BME280;23240;43.210;27.910;2022-09-09T05:51:52;101269.63;;;23.97;94.89
37368;BME280;23240;43.210;27.910;2022-09-09T05:54:18;101276.13;;;24.24;93.58
37368;BME280;23240;43.210;27.910;2022-09-09T05:56:43;101271.84;;;24.43;92.85
37368;BME280;23240;43.210;27.910;2022-09-09T05:59:10;101262.69;;;24.77;90.60
37368;BME280;23240;43.210;27.910;2022-09-09T06:01:36;101272.53;;;25.19;88.80
37368;BME280;23240;43.210;27.910;2022-09-09T06:04:06;101267.06;;;25.85;83.43
37368;BME280;23240;43.210;27.910;2022-09-09T06:06:34;101268.41;;;26.34;80.18
37368;BME280;23240;43.210;27.910;2022-09-09T06:09:05;101270.94;;;26.94;75.71
37368;BME280;23240;43.210;27.910;2022-09-09T06:11:37;101265.19;;;27.34;72.79
37368;BME280;23240;43.210;27.910;2022-09-09T06:14:04;101261.72;;;27.95;68.38
37368;BME280;23240;43.210;27.910;2022-09-09T06:16:30;101261.88;;;28.18;65.90
37368;BME280;23240;43.210;27.910;2022-09-09T06:18:58;101261.13;;;28.30;65.08
37368;BME280;23240;43.210;27.910;2022-09-09T06:21:26;101268.94;;;28.14;65.02
37368;BME280;23240;43.210;27.910;2022-09-09T06:23:52;101268.22;;;28.01;65.69
37368;BME280;23240;43.210;27.910;2022-09-09T06:26:24;101268.38;;;28.06;65.64
37368;BME280;23240;43.210;27.910;2022-09-09T06:28:52;101269.56;;;28.35;64.32
37368;BME280;23240;43.210;27.910;2022-09-09T06:31:19;101277.44;;;28.50;63.98
37368;BME280;23240;43.210;27.910;2022-09-09T06:33:49;101279.50;;;28.54;63.24
37368;BME280;23240;43.210;27.910;2022-09-09T06:36:39;101268.78;;;28.64;64.09
37368;BME280;23240;43.210;27.910;2022-09-09T06:39:05;101280.53;;;28.72;63.52
37368;BME280;23240;43.210;27.910;2022-09-09T06:41:32;101281.94;;;28.62;64.61
37368;BME280;23240;43.210;27.910;2022-09-09T06:43:58;101289.50;;;29.15;62.23
37368;BME280;23240;43.210;27.910;2022-09-09T06:46:26;101288.28;;;29.53;60.14
37368;BME280;23240;43.210;27.910;2022-09-09T06:48:56;101298.19;;;29.96;58.77
37368;BME280;23240;43.210;27.910;2022-09-09T06:51:28;101293.16;;;30.16;57.44
37368;BME280;23240;43.210;27.910;2022-09-09T06:53:56;101295.66;;;30.06;56.36
37368;BME280;23240;43.210;27.910;2022-09-09T06:58:51;101295.53;;;29.78;58.23
37368;BME280;23240;43.210;27.910;2022-09-09T07:01:19;101301.53;;;29.75;58.80
37368;BME280;23240;43.210;27.910;2022-09-09T07:03:47;101295.16;;;29.62;59.67
37368;BME280;23240;43.210;27.910;2022-09-09T07:06:15;101296.38;;;29.55;60.89
37368;BME280;23240;43.210;27.910;2022-09-09T07:08:43;101293.00;;;29.64;60.66
37368;BME280;23240;43.210;27.910;2022-09-09T07:11:09;101296.97;;;29.68;60.89
37368;BME280;23240;43.210;27.910;2022-09-09T07:13:35;101294.81;;;29.70;60.48
37368;BME280;23240;43.210;27.910;2022-09-09T07:16:11;101289.81;;;29.49;61.63
37368;BME280;23240;43.210;27.910;2022-09-09T07:18:39;101302.31;;;29.52;62.04
37368;BME280;23240;43.210;27.910;2022-09-09T07:21:05;101299.72;;;29.92;60.16
37368;BME280;23240;43.210;27.910;2022-09-09T07:23:32;101296.88;;;29.99;59.60
37368;BME280;23240;43.210;27.910;2022-09-09T07:25:58;101301.88;;;29.78;59.82
37368;BME280;23240;43.210;27.910;2022-09-09T07:28:25;101301.16;;;29.83;59.36
37368;BME280;23240;43.210;27.910;2022-09-09T07:30:59;101298.91;;;29.80;60.25
37368;BME280;23240;43.210;27.910;2022-09-09T07:33:25;101292.88;;;29.71;61.62
37368;BME280;23240;43.210;27.910;2022-09-09T07:35:51;101293.38;;;29.80;61.83
37368;BME280;23240;43.210;27.910;2022-09-09T07:38:18;101295.28;;;29.67;61.09
37368;BME280;23240;43.210;27.910;2022-09-09T07:40:44;101306.75;;;29.41;62.97
37368;BME280;23240;43.210;27.910;2022-09-09T07:43:10;101304.66;;;29.90;61.46
37368;BME280;23240;43.210;27.910;2022-09-09T07:45:36;101309.72;;;30.16;57.66
37368;BME280;23240;43.210;27.910;2022-09-09T07:48:03;101309.47;;;30.06;56.88
37368;BME280;23240;43.210;27.910;2022-09-09T07:50:29;101311.50;;;29.87;58.29
37368;BME280;23240;43.210;27.910;2022-09-09T07:52:54;101305.81;;;29.59;59.74
37368;BME280;23240;43.210;27.910;2022-09-09T07:55:21;101305.06;;;29.52;61.13
37368;BME280;23240;43.210;27.910;2022-09-09T07:57:50;101313.53;;;29.68;58.88
37368;BME280;23240;43.210;27.910;2022-09-09T08:00:15;101308.97;;;29.62;56.31
37368;BME280;23240;43.210;27.910;2022-09-09T08:02:41;101308.03;;;29.38;51.78
37368;BME280;23240;43.210;27.910;2022-09-09T08:05:07;101310.06;;;29.31;52.39
37368;BME280;23240;43.210;27.910;2022-09-09T08:07:32;101307.38;;;29.13;46.57
37368;BME280;23240;43.210;27.910;2022-09-09T08:09:58;101305.44;;;29.13;48.77
37368;BME280;23240;43.210;27.910;2022-09-09T08:12:23;101305.78;;;29.05;52.58
37368;BME280;23240;43.210;27.910;2022-09-09T08:14:49;101304.94;;;28.86;48.37
37368;BME280;23240;43.210;27.910;2022-09-09T08:17:15;101304.59;;;28.83;45.48
37368;BME280;23240;43.210;27.910;2022-09-09T08:19:40;101298.31;;;28.76;45.96
37368;BME280;23240;43.210;27.910;2022-09-09T08:22:06;101289.16;;;28.63;40.93
37368;BME280;23240;43.210;27.910;2022-09-09T08:24:32;101279.09;;;28.69;41.31
37368;BME280;23240;43.210;27.910;2022-09-09T08:26:58;101283.53;;;28.70;46.84
37368;BME280;23240;43.210;27.910;2022-09-09T08:29:25;101287.16;;;28.52;47.88
37368;BME280;23240;43.210;27.910;2022-09-09T08:31:52;101283.59;;;28.27;52.98
37368;BME280;23240;43.210;27.910;2022-09-09T08:34:20;101269.59;;;27.91;55.35
37368;BME280;23240;43.210;27.910;2022-09-09T08:36:46;101270.50;;;27.85;59.25
37368;BME280;23240;43.210;27.910;2022-09-09T08:39:14;101262.84;;;27.87;59.74
37368;BME280;23240;43.210;27.910;2022-09-09T08:47:20;101270.19;;;27.19;68.68
37368;BME280;23240;43.210;27.910;2022-09-09T08:53:23;101273.22;;;26.97;74.32
37368;BME280;23240;43.210;27.910;2022-09-09T08:55:52;101271.53;;;26.96;76.17
37368;BME280;23240;43.210;27.910;2022-09-09T09:11:40;101255.69;;;26.53;80.49
37368;BME280;23240;43.210;27.910;2022-09-09T09:14:14;101253.59;;;26.42;82.02
37368;BME280;23240;43.210;27.910;2022-09-09T09:16:53;101252.16;;;26.33;82.36
37368;BME280;23240;43.210;27.910;2022-09-09T09:19:20;101256.16;;;26.44;82.84
37368;BME280;23240;43.210;27.910;2022-09-09T09:21:59;101256.81;;;26.46;82.44
37368;BME280;23240;43.210;27.910;2022-09-09T09:25:31;101252.16;;;26.33;82.55
37368;BME280;23240;43.210;27.910;2022-09-09T09:27:40;101251.97;;;26.28;82.07
37368;BME280;23240;43.210;27.910;2022-09-09T09:30:18;101265.53;;;26.16;84.61
37368;BME280;23240;43.210;27.910;2022-09-09T09:33:28;101270.59;;;26.12;85.90
37368;BME280;23240;43.210;27.910;2022-09-09T09:35:52;101265.97;;;26.06;86.24
37368;BME280;23240;43.210;27.910;2022-09-09T09:38:23;101261.31;;;26.13;84.01
37368;BME280;23240;43.210;27.910;2022-09-09T09:40:55;101273.38;;;25.99;85.48
37368;BME280;23240;43.210;27.910;2022-09-09T09:43:31;101271.50;;;25.93;87.22
37368;BME280;23240;43.210;27.910;2022-09-09T09:45:57;101276.97;;;25.86;86.56
37368;BME280;23240;43.210;27.910;2022-09-09T09:48:25;101286.22;;;25.72;86.11
37368;BME280;23240;43.210;27.910;2022-09-09T09:50:58;101282.03;;;25.70;86.72
37368;BME280;23240;43.210;27.910;2022-09-09T09:53:26;101271.06;;;25.70;87.18
37368;BME280;23240;43.210;27.910;2022-09-09T09:58:30;101267.69;;;25.68;90.18
37368;BME280;23240;43.210;27.910;2022-09-09T10:00:59;101249.97;;;25.77;90.15
37368;BME280;23240;43.210;27.910;2022-09-09T10:03:35;101256.69;;;25.74;87.42
37368;BME280;23240;43.210;27.910;2022-09-09T10:06:03;101258.81;;;25.59;91.30
37368;BME280;23240;43.210;27.910;2022-09-09T10:08:29;101256.50;;;25.49;94.50
37368;BME280;23240;43.210;27.910;2022-09-09T10:21:53;101255.25;;;25.38;92.95
37368;BME280;23240;43.210;27.910;2022-09-09T10:27:19;101250.38;;;25.21;94.98
37368;BME280;23240;43.210;27.910;2022-09-09T10:32:41;101246.16;;;25.25;96.38
37368;BME280;23240;43.210;27.910;2022-09-09T10:35:15;101251.84;;;25.17;95.85
37368;BME280;23240;43.210;27.910;2022-09-09T10:52:49;101255.84;;;25.27;98.03
37368;BME280;23240;43.210;27.910;2022-09-09T10:55:24;101245.53;;;25.36;97.65
37368;BME280;23240;43.210;27.910;2022-09-09T10:57:54;101241.53;;;25.45;95.06
37368;BME280;23240;43.210;27.910;2022-09-09T11:00:23;101250.19;;;25.35;97.69
37368;BME280;23240;43.210;27.910;2022-09-09T11:03:01;101243.00;;;25.21;95.97
37368;BME280;23240;43.210;27.910;2022-09-09T11:08:20;101232.03;;;25.28;95.91
37368;BME280;23240;43.210;27.910;2022-09-09T11:11:04;101244.91;;;25.34;95.58
37368;BME280;23240;43.210;27.910;2022-09-09T11:13:45;101241.53;;;25.45;96.40
37368;BME280;23240;43.210;27.910;2022-09-09T11:16:34;101242.56;;;25.57;96.62
37368;BME280;23240;43.210;27.910;2022-09-09T11:19:05;101244.88;;;25.74;94.62
37368;BME280;23240;43.210;27.910;2022-09-09T11:21:47;101249.97;;;25.63;95.74
37368;BME280;23240;43.210;27.910;2022-09-09T11:24:23;101251.00;;;25.56;92.96
37368;BME280;23240;43.210;27.910;2022-09-09T11:38:12;101232.03;;;25.41;98.82
37368;BME280;23240;43.210;27.910;2022-09-09T11:40:39;101238.38;;;25.35;98.67
37368;BME280;23240;43.210;27.910;2022-09-09T11:43:10;101228.44;;;25.21;98.33
37368;BME280;23240;43.210;27.910;2022-09-09T11:45:39;101236.66;;;25.21;100.00
37368;BME280;23240;43.210;27.910;2022-09-09T11:48:22;101230.13;;;25.28;100.00
37368;BME280;23240;43.210;27.910;2022-09-09T11:50:58;101236.63;;;25.14;100.00
37368;BME280;23240;43.210;27.910;2022-09-09T11:53:25;101233.50;;;25.10;100.00
37368;BME280;23240;43.210;27.910;2022-09-09T11:56:08;101235.63;;;25.15;100.00
37368;BME280;23240;43.210;27.910;2022-09-09T11:58:43;101232.88;;;25.15;100.00
37368;BME280;23240;43.210;27.910;2022-09-09T12:01:27;101220.63;;;25.18;100.00
37368;BME280;23240;43.210;27.910;2022-09-09T12:06:44;101222.09;;;25.13;100.00
37368;BME280;23240;43.210;27.910;2022-09-09T12:14:43;101203.75;;;25.27;100.00
37368;BME280;23240;43.210;27.910;2022-09-09T12:19:41;101209.88;;;25.16;100.00
37368;BME280;23240;43.210;27.910;2022-09-09T12:25:09;101200.34;;;25.05;99.18
37368;BME280;23240;43.210;27.910;2022-09-09T12:30:29;101192.13;;;24.92;100.00
37368;BME280;23240;43.210;27.910;2022-09-09T12:33:15;101187.31;;;25.07;100.00
37368;BME280;23240;43.210;27.910;2022-09-09T12:35:43;101194.88;;;25.05;100.00
37368;BME280;23240;43.210;27.910;2022-09-09T12:38:26;101192.59;;;25.16;99.67
37368;BME280;23240;43.210;27.910;2022-09-09T12:40:57;101189.63;;;25.10;100.00
37368;BME280;23240;43.210;27.910;2022-09-09T12:43:24;101203.53;;;25.09;100.00
37368;BME280;23240;43.210;27.910;2022-09-09T12:45:56;101188.38;;;25.13;100.00
37368;BME280;23240;43.210;27.910;2022-09-09T12:48:38;101184.56;;;25.14;99.98
37368;BME280;23240;43.210;27.910;2022-09-09T12:51:23;101174.66;;;25.13;99.38
37368;BME280;23240;43.210;27.910;2022-09-09T12:53:51;101172.56;;;25.15;100.00
37368;BME280;23240;43.210;27.910;2022-09-09T12:56:25;101179.47;;;25.04;100.00
37368;BME280;23240;43.210;27.910;2022-09-09T12:58:52;101183.69;;;25.00;100.00
37368;BME280;23240;43.210;27.910;2022-09-09T13:03:50;101170.63;;;25.02;100.00
37368;BME280;23240;43.210;27.910;2022-09-09T13:06:24;101171.03;;;24.99;99.26
37368;BME280;23240;43.210;27.910;2022-09-09T13:08:51;101174.00;;;24.91;100.00
37368;BME280;23240;43.210;27.910;2022-09-09T13:13:52;101160.91;;;24.86;100.00
37368;BME280;23240;43.210;27.910;2022-09-09T13:16:28;101160.69;;;24.88;100.00
37368;BME280;23240;43.210;27.910;2022-09-09T13:19:02;101164.06;;;24.83;100.00
37368;BME280;23240;43.210;27.910;2022-09-09T13:21:36;101170.16;;;24.79;100.00
37368;BME280;23240;43.210;27.910;2022-09-09T13:24:05;101169.31;;;24.72;100.00
37368;BME280;23240;43.210;27.910;2022-09-09T13:26:33;101163.00;;;24.78;100.00
37368;BME280;23240;43.210;27.910;2022-09-09T13:29:16;101165.13;;;24.82;100.00
37368;BME280;23240;43.210;27.910;2022-09-09T13:31:44;101157.97;;;24.81;100.00
37368;BME280;23240;43.210;27.910;2022-09-09T13:34:22;101158.38;;;24.92;100.00
37368;BME280;23240;43.210;27.910;2022-09-09T13:36:55;101154.59;;;24.99;100.00
37368;BME280;23240;43.210;27.910;2022-09-09T13:39:22;101147.41;;;24.98;100.00
37368;BME280;23240;43.210;27.910;2022-09-09T13:41:48;101144.47;;;24.93;100.00
37368;BME280;23240;43.210;27.910;2022-09-09T13:44:18;101153.75;;;24.85;100.00
37368;BME280;23240;43.210;27.910;2022-09-09T13:46:45;101148.91;;;24.81;100.00
37368;BME280;23240;43.210;27.910;2022-09-09T13:54:09;101143.00;;;24.77;100.00
37368;BME280;23240;43.210;27.910;2022-09-09T13:56:36;101149.09;;;24.66;100.00
37368;BME280;23240;43.210;27.910;2022-09-09T13:59:04;101147.81;;;24.62;100.00
37368;BME280;23240;43.210;27.910;2022-09-09T14:01:30;101153.25;;;24.55;100.00
37368;BME280;23240;43.210;27.910;2022-09-09T14:03:56;101161.06;;;24.58;100.00
37368;BME280;23240;43.210;27.910;2022-09-09T14:06:22;101154.09;;;24.56;100.00
37368;BME280;23240;43.210;27.910;2022-09-09T14:08:51;101150.50;;;24.42;100.00
37368;BME280;23240;43.210;27.910;2022-09-09T14:11:18;101155.34;;;24.40;100.00
37368;BME280;23240;43.210;27.910;2022-09-09T14:13:44;101132.94;;;24.30;100.00
37368;BME280;23240;43.210;27.910;2022-09-09T14:16:09;101128.31;;;24.24;100.00
37368;BME280;23240;43.210;27.910;2022-09-09T14:18:35;101129.78;;;24.26;100.00
37368;BME280;23240;43.210;27.910;2022-09-09T14:21:03;101124.13;;;24.28;100.00
37368;BME280;23240;43.210;27.910;2022-09-09T14:23:31;101110.81;;;24.25;100.00
37368;BME280;23240;43.210;27.910;2022-09-09T14:25:57;101109.38;;;24.29;100.00
37368;BME280;23240;43.210;27.910;2022-09-09T14:28:23;101120.94;;;24.31;100.00
37368;BME280;23240;43.210;27.910;2022-09-09T14:30:48;101119.88;;;24.32;100.00
37368;BME280;23240;43.210;27.910;2022-09-09T14:33:15;101113.16;;;24.28;100.00
37368;BME280;23240;43.210;27.910;2022-09-09T14:35:42;101110.22;;;24.29;100.00
37368;BME280;23240;43.210;27.910;2022-09-09T14:38:08;101111.88;;;24.24;100.00
37368;BME280;23240;43.210;27.910;2022-09-09T14:40:35;101109.97;;;24.18;100.00
37368;BME280;23240;43.210;27.910;2022-09-09T14:43:02;101112.06;;;24.16;100.00
37368;BME280;23240;43.210;27.910;2022-09-09T14:45:28;101114.34;;;24.12;100.00
37368;BME280;23240;43.210;27.910;2022-09-09T14:47:53;101113.94;;;24.08;100.00
37368;BME280;23240;43.210;27.910;2022-09-09T14:50:19;101111.84;;;24.10;100.00
37368;BME280;23240;43.210;27.910;2022-09-09T14:52:45;101116.06;;;24.13;100.00
37368;BME280;23240;43.210;27.910;2022-09-09T14:55:11;101113.50;;;24.11;100.00
37368;BME280;23240;43.210;27.910;2022-09-09T14:57:37;101114.75;;;24.02;100.00
37368;BME280;23240;43.210;27.910;2022-09-09T15:00:04;101113.91;;;24.02;100.00
37368;BME280;23240;43.210;27.910;2022-09-09T15:02:31;101110.53;;;24.00;100.00
37368;BME280;23240;43.210;27.910;2022-09-09T15:04:56;101106.31;;;23.97;100.00
37368;BME280;23240;43.210;27.910;2022-09-09T15:07:24;101094.50;;;23.97;100.00
37368;BME280;23240;43.210;27.910;2022-09-09T15:09:50;101098.91;;;23.91;100.00
37368;BME280;23240;43.210;27.910;2022-09-09T15:12:15;101090.72;;;23.91;100.00
37368;BME280;23240;43.210;27.910;2022-09-09T15:14:44;101096.56;;;23.81;100.00